Terminal Aerodrome Forecast
Issued by NWS

Home | Current Version | Previous Version | Text Only | Print | Product List | Glossary On
Versions: 1 2 3 4 5 6 7 8 9 10 11 12 13
925
FTAK31 PAJN 302328
TAFAWG
TAF
PAWG 302328Z 3100/3124 10012KT P6SM VCSH BKN035 OVC050
     FM310500 12012G22KT 6SM -RA BKN025 OVC035 WS020/15035KT
     FM310800 12020G30KT 4SM -RA BR BKN020 OVC030 WS020/15040KT
      AMD LTD TO CLD VIS AND WIND 3106/3115=

USA.gov is the U.S. government's official web portal to all federal, state and local government web resources and services.